Samskip Ice — C6SO4 — position and weather

sailwx.info

Track history (hours):
 
Tides and Currents Weather Stations Pressure Air Temp Water Temp Dewpoint Dewpoint Depression Visibility Wind Speed Wind Dir Waves Ship Positions

Samskip Ice

Last reported at 2017-Mar-30 21:34 UTC. Time now 2017-Mar-30 22:32 UTC.
Position N 71°14' E 025°19'.

Length 86 m; draft 5 m.

Type: Cargo ship. MMSI: 311411000.

Date/timePositionNaut miles runAvg speedWind from/ knotsBaromVisibWave heightAir tempDewpointWater temp
2017-Mar-30 21:34N 71°14' E 025°19'1111.1
2017-Mar-30 20:33N 71°12' E 024°45'1110.9
2017-Mar-30 19:33N 71°11' E 024°11'1010.4
2017-Mar-30 18:33N 71°09' E 023°39'1010.4
2017-Mar-30 17:33N 71°05' E 023°10'1010.3
2017-Mar-30 16:33N 71°01' E 022°40'1110.7
2017-Mar-30 15:33N 70°57' E 022°11'1211.5
2017-Mar-30 14:33N 70°52' E 021°39'2411.2
2017-Mar-30 12:24N 70°41' E 020°33'911.0
2017-Mar-30 11:33N 70°37' E 020°08'1111.1
2017-Mar-30 10:33N 70°32' E 019°39'1211.9
2017-Mar-30 09:33N 70°26' E 019°08'1211.6
2017-Mar-30 08:33N 70°19' E 018°39'1211.8
2017-Mar-30 07:33N 70°13' E 018°09'1211.9
2017-Mar-30 06:33N 70°06' E 017°41'1211.7
2017-Mar-30 05:33N 69°58' E 017°16'1211.6
2017-Mar-30 04:33N 69°50' E 016°52'1212.5
2017-Mar-30 03:33N 69°41' E 016°26'1211.7
2017-Mar-30 02:33N 69°33' E 016°02'1211.7
2017-Mar-30 01:33N 69°25' E 015°38'1212.0
2017-Mar-30 00:32N 69°17' E 015°13'1211.8
2017-Mar-29 23:33N 69°07' E 014°52'2611.7
2017-Mar-29 21:18N 68°47' E 014°05'911.5
2017-Mar-29 20:33N 68°41' E 013°50'1211.7
2017-Mar-29 19:34N 68°32' E 013°30'1211.5
2017-Mar-29 18:33N 68°22' E 013°10'1111.3
2017-Mar-29 17:33N 68°14' E 012°52'1111.3
2017-Mar-29 16:33N 68°04' E 012°34'33511.2
2017-Mar-28 10:33N 63°06' E 006°24'1111.6
2017-Mar-28 09:34N 62°57' E 006°09'1211.7
2017-Mar-28 08:33N 62°47' E 005°53'1211.8
2017-Mar-28 07:34N 62°38' E 005°37'1211.7
2017-Mar-28 06:33N 62°29' E 005°22'1211.6
2017-Mar-28 05:33N 62°20' E 005°07'1111.2
2017-Mar-28 04:34N 62°11' E 004°53'1111.1
2017-Mar-28 03:33N 62°00' E 004°44'1111.2
2017-Mar-28 02:33N 61°50' E 004°35'1111.4
2017-Mar-28 01:33N 61°39' E 004°28'1110.9
2017-Mar-28 00:33N 61°28' E 004°25'1211.6
2017-Mar-27 23:33N 61°16' E 004°22'1211.7
2017-Mar-27 22:33N 61°05' E 004°19'1211.9
2017-Mar-27 21:33N 60°53' E 004°17'9012.8
2017-Mar-27 14:32N 59°24' E 004°31'3012.4
2017-Mar-27 12:05N 58°54' E 004°38'712.2
2017-Mar-27 11:33N 58°47' E 004°40'1212.0
2017-Mar-27 10:34N 58°35' E 004°43'1412.1
2017-Mar-27 09:23N 58°21' E 004°45'3512.2
2017-Mar-27 06:30N 57°47' E 004°58'25012.5
2017-Mar-26 10:27N 53°41' E 006°19'1312.0
2017-Mar-26 09:24N 53°35' E 006°37'911.1
2017-Mar-26 08:33N 53°29' E 006°50'2 0.3
2017-Mar-26 01:32N 53°27' E 006°49'2 0.2
2017-Mar-25 14:32N 53°29' E 006°49'47 9.2
2017-Mar-25 09:27N 54°10' E 006°11'1212.7
2017-Mar-25 08:33N 54°21' E 006°08'1312.9
2017-Mar-25 07:31N 54°34' E 006°05'1212.8
2017-Mar-25 06:32N 54°47' E 006°01'1312.8
2017-Mar-25 05:33N 54°59' E 005°57'1612.7
2017-Mar-25 04:19N 55°15' E 005°54'1012.8
2017-Mar-25 03:32N 55°24' E 005°51'1312.7
2017-Mar-25 02:32N 55°37' E 005°48'31512.1
2017-Mar-24 00:32N 60°48' E 004°18'1111.0
2017-Mar-23 23:33N 60°59' E 004°18'1111.4
2017-Mar-23 22:33N 61°10' E 004°20'1111.1
2017-Mar-23 21:33N 61°21' E 004°23'1211.7
2017-Mar-23 20:33N 61°33' E 004°27'1211.8
2017-Mar-23 19:33N 61°44' E 004°32'1111.0
2017-Mar-23 18:32N 61°55' E 004°40'1111.2
2017-Mar-23 17:33N 62°05' E 004°49'1111.3
2017-Mar-23 16:33N 62°16' E 004°57'1410.0
2017-Mar-23 15:11N 62°24' E 005°21'710.6
2017-Mar-23 14:33N 62°28' E 005°31'9 9.3
2017-Mar-23 13:33N 62°27' E 005°51'1111.0
2017-Mar-23 12:33N 62°29' E 006°15'3 2.9
2017-Mar-23 11:33N 62°28' E 006°21'0 0.0
2017-Mar-23 10:33N 62°28' E 006°21'0 0.0
2017-Mar-23 09:33N 62°28' E 006°21'0 0.0
2017-Mar-23 08:33N 62°28' E 006°21'0 0.0
2017-Mar-23 07:33N 62°28' E 006°21'0 0.0
2017-Mar-23 06:32N 62°28' E 006°21'0 0.0
2017-Mar-23 05:33N 62°28' E 006°21'0 0.0
2017-Mar-23 04:33N 62°28' E 006°21'1 0.9
2017-Mar-23 03:33N 62°29' E 006°19'5 5.2
2017-Mar-23 02:33N 62°31' E 006°09'8 7.7
2017-Mar-23 01:33N 62°37' E 006°19'10 9.6
2017-Mar-23 00:32N 62°45' E 006°32'1111.0
2017-Mar-22 23:33N 62°54' E 006°45'10 9.8
2017-Mar-22 22:33N 63°01' E 007°01'10 9.9
2017-Mar-22 21:33N 63°04' E 007°22'9 9.5
2017-Mar-22 20:33N 63°08' E 007°40'1110.8
2017-Mar-22 19:33N 63°14' E 007°60'1211.6
2017-Mar-22 18:33N 63°21' E 008°21'1211.8
2017-Mar-22 17:33N 63°26' E 008°45'1111.4
2017-Mar-22 16:33N 63°31' E 009°08'1010.1
2017-Mar-22 15:33N 63°40' E 009°15'1212.2
2017-Mar-22 14:33N 63°52' E 009°21'1212.3
2017-Mar-22 13:33N 64°04' E 009°29'1010.4
2017-Mar-22 12:33N 64°13' E 009°41'23010.8
2017-Mar-21 15:19N 67°55' E 012°16'810.3
2017-Mar-21 14:33N 68°01' E 012°28'1110.4
2017-Mar-21 13:33N 68°10' E 012°44'1110.7
2017-Mar-21 12:32N 68°18' E 013°02'1111.0
2017-Mar-21 11:33N 68°26' E 013°21'1110.6
2017-Mar-21 10:32N 68°34' E 013°41'1010.2
2017-Mar-21 09:32N 68°42' E 014°00'10 9.8
2017-Mar-21 08:33N 68°49' E 014°18'9 9.3
2017-Mar-21 07:33N 68°56' E 014°35'1010.2
2017-Mar-21 06:33N 69°04' E 014°54'1010.3
2017-Mar-21 05:32N 69°11' E 015°16'1010.2
2017-Mar-21 04:33N 69°18' E 015°35'9 9.5
2017-Mar-21 03:33N 69°24' E 015°57'10 9.5
2017-Mar-21 02:33N 69°28' E 016°20'1111.0
2017-Mar-21 01:33N 69°33' E 016°49'1211.5
2017-Mar-21 00:33N 69°37' E 017°20'1010.2
2017-Mar-20 23:33N 69°38' E 017°48'1111.4
2017-Mar-20 22:33N 69°31' E 018°13'  
Track history (hours):
 
Tides and Currents Weather Stations Pressure Air Temp Water Temp Dewpoint Dewpoint Depression Visibility Wind Speed Wind Dir Waves Ship Positions

Samskip Ice

Last reported at 2017-Mar-30 21:34 UTC. Time now 2017-Mar-30 22:32 UTC.
Position N 71°14' E 025°19'.

Length 86 m; draft 5 m.

Type: Cargo ship. MMSI: 311411000.

Date/timePositionNaut miles runAvg speedWind from/ knotsBaromVisibWave heightAir tempDewpointWater temp
2017-Mar-30 21:34N 71°14' E 025°19'1111.1
2017-Mar-30 20:33N 71°12' E 024°45'1110.9
2017-Mar-30 19:33N 71°11' E 024°11'1010.4
2017-Mar-30 18:33N 71°09' E 023°39'1010.4
2017-Mar-30 17:33N 71°05' E 023°10'1010.3
2017-Mar-30 16:33N 71°01' E 022°40'1110.7
2017-Mar-30 15:33N 70°57' E 022°11'1211.5
2017-Mar-30 14:33N 70°52' E 021°39'2411.2
2017-Mar-30 12:24N 70°41' E 020°33'911.0
2017-Mar-30 11:33N 70°37' E 020°08'1111.1
2017-Mar-30 10:33N 70°32' E 019°39'1211.9
2017-Mar-30 09:33N 70°26' E 019°08'1211.6
2017-Mar-30 08:33N 70°19' E 018°39'1211.8
2017-Mar-30 07:33N 70°13' E 018°09'1211.9
2017-Mar-30 06:33N 70°06' E 017°41'1211.7
2017-Mar-30 05:33N 69°58' E 017°16'1211.6
2017-Mar-30 04:33N 69°50' E 016°52'1212.5
2017-Mar-30 03:33N 69°41' E 016°26'1211.7
2017-Mar-30 02:33N 69°33' E 016°02'1211.7
2017-Mar-30 01:33N 69°25' E 015°38'1212.0
2017-Mar-30 00:32N 69°17' E 015°13'1211.8
2017-Mar-29 23:33N 69°07' E 014°52'2611.7
2017-Mar-29 21:18N 68°47' E 014°05'911.5
2017-Mar-29 20:33N 68°41' E 013°50'1211.7
2017-Mar-29 19:34N 68°32' E 013°30'1211.5
2017-Mar-29 18:33N 68°22' E 013°10'1111.3
2017-Mar-29 17:33N 68°14' E 012°52'1111.3
2017-Mar-29 16:33N 68°04' E 012°34'33511.2
2017-Mar-28 10:33N 63°06' E 006°24'1111.6
2017-Mar-28 09:34N 62°57' E 006°09'1211.7
2017-Mar-28 08:33N 62°47' E 005°53'1211.8
2017-Mar-28 07:34N 62°38' E 005°37'1211.7
2017-Mar-28 06:33N 62°29' E 005°22'1211.6
2017-Mar-28 05:33N 62°20' E 005°07'1111.2
2017-Mar-28 04:34N 62°11' E 004°53'1111.1
2017-Mar-28 03:33N 62°00' E 004°44'1111.2
2017-Mar-28 02:33N 61°50' E 004°35'1111.4
2017-Mar-28 01:33N 61°39' E 004°28'1110.9
2017-Mar-28 00:33N 61°28' E 004°25'1211.6
2017-Mar-27 23:33N 61°16' E 004°22'1211.7
2017-Mar-27 22:33N 61°05' E 004°19'1211.9
2017-Mar-27 21:33N 60°53' E 004°17'9012.8
2017-Mar-27 14:32N 59°24' E 004°31'3012.4
2017-Mar-27 12:05N 58°54' E 004°38'712.2
2017-Mar-27 11:33N 58°47' E 004°40'1212.0
2017-Mar-27 10:34N 58°35' E 004°43'1412.1
2017-Mar-27 09:23N 58°21' E 004°45'3512.2
2017-Mar-27 06:30N 57°47' E 004°58'25012.5
2017-Mar-26 10:27N 53°41' E 006°19'1312.0
2017-Mar-26 09:24N 53°35' E 006°37'911.1
2017-Mar-26 08:33N 53°29' E 006°50'2 0.3
2017-Mar-26 01:32N 53°27' E 006°49'2 0.2
2017-Mar-25 14:32N 53°29' E 006°49'47 9.2
2017-Mar-25 09:27N 54°10' E 006°11'1212.7
2017-Mar-25 08:33N 54°21' E 006°08'1312.9
2017-Mar-25 07:31N 54°34' E 006°05'1212.8
2017-Mar-25 06:32N 54°47' E 006°01'1312.8
2017-Mar-25 05:33N 54°59' E 005°57'1612.7
2017-Mar-25 04:19N 55°15' E 005°54'1012.8
2017-Mar-25 03:32N 55°24' E 005°51'1312.7
2017-Mar-25 02:32N 55°37' E 005°48'31512.1
2017-Mar-24 00:32N 60°48' E 004°18'1111.0
2017-Mar-23 23:33N 60°59' E 004°18'1111.4
2017-Mar-23 22:33N 61°10' E 004°20'1111.1
2017-Mar-23 21:33N 61°21' E 004°23'1211.7
2017-Mar-23 20:33N 61°33' E 004°27'1211.8
2017-Mar-23 19:33N 61°44' E 004°32'1111.0
2017-Mar-23 18:32N 61°55' E 004°40'1111.2
2017-Mar-23 17:33N 62°05' E 004°49'1111.3
2017-Mar-23 16:33N 62°16' E 004°57'1410.0
2017-Mar-23 15:11N 62°24' E 005°21'710.6
2017-Mar-23 14:33N 62°28' E 005°31'9 9.3
2017-Mar-23 13:33N 62°27' E 005°51'1111.0
2017-Mar-23 12:33N 62°29' E 006°15'3 2.9
2017-Mar-23 11:33N 62°28' E 006°21'0 0.0
2017-Mar-23 10:33N 62°28' E 006°21'0 0.0
2017-Mar-23 09:33N 62°28' E 006°21'0 0.0
2017-Mar-23 08:33N 62°28' E 006°21'0 0.0
2017-Mar-23 07:33N 62°28' E 006°21'0 0.0
2017-Mar-23 06:32N 62°28' E 006°21'0 0.0
2017-Mar-23 05:33N 62°28' E 006°21'0 0.0
2017-Mar-23 04:33N 62°28' E 006°21'1 0.9
2017-Mar-23 03:33N 62°29' E 006°19'5 5.2
2017-Mar-23 02:33N 62°31' E 006°09'8 7.7
2017-Mar-23 01:33N 62°37' E 006°19'10 9.6
2017-Mar-23 00:32N 62°45' E 006°32'1111.0
2017-Mar-22 23:33N 62°54' E 006°45'10 9.8
2017-Mar-22 22:33N 63°01' E 007°01'10 9.9
2017-Mar-22 21:33N 63°04' E 007°22'9 9.5
2017-Mar-22 20:33N 63°08' E 007°40'1110.8
2017-Mar-22 19:33N 63°14' E 007°60'1211.6
2017-Mar-22 18:33N 63°21' E 008°21'1211.8
2017-Mar-22 17:33N 63°26' E 008°45'1111.4
2017-Mar-22 16:33N 63°31' E 009°08'1010.1
2017-Mar-22 15:33N 63°40' E 009°15'1212.2
2017-Mar-22 14:33N 63°52' E 009°21'1212.3
2017-Mar-22 13:33N 64°04' E 009°29'1010.4
2017-Mar-22 12:33N 64°13' E 009°41'23010.8
2017-Mar-21 15:19N 67°55' E 012°16'810.3
2017-Mar-21 14:33N 68°01' E 012°28'1110.4
2017-Mar-21 13:33N 68°10' E 012°44'1110.7
2017-Mar-21 12:32N 68°18' E 013°02'1111.0
2017-Mar-21 11:33N 68°26' E 013°21'1110.6
2017-Mar-21 10:32N 68°34' E 013°41'1010.2
2017-Mar-21 09:32N 68°42' E 014°00'10 9.8
2017-Mar-21 08:33N 68°49' E 014°18'9 9.3
2017-Mar-21 07:33N 68°56' E 014°35'1010.2
2017-Mar-21 06:33N 69°04' E 014°54'1010.3
2017-Mar-21 05:32N 69°11' E 015°16'1010.2
2017-Mar-21 04:33N 69°18' E 015°35'9 9.5
2017-Mar-21 03:33N 69°24' E 015°57'10 9.5
2017-Mar-21 02:33N 69°28' E 016°20'1111.0
2017-Mar-21 01:33N 69°33' E 016°49'1211.5
2017-Mar-21 00:33N 69°37' E 017°20'1010.2
2017-Mar-20 23:33N 69°38' E 017°48'1111.4
2017-Mar-20 22:33N 69°31' E 018°13'  

Dump ship's entire track history